Time;durP1;ratioP1;P1;durP2;ratioP2;P2;SDS_P1;SDS_P2;PMS_P1;PMS_P2;Temp;Humidity;BMP_temperature;BMP_pressure;BME280_temperature;BME280_humidity;BME280_pressure;Samples;Min_cycle;Max_cycle;Signal;HPM_P1;HPM_P2
2022/01/13 00:02:21;;;;;;;52.92;25.42;;;6.00;99.90;;;;;;2152188;66;20166;-74
2022/01/13 00:05:05;;;;;;;64.15;24.33;;;6.50;99.90;;;;;;2146861;66;20426;-74
2022/01/13 00:07:48;;;;;;;59.40;25.45;;;5.90;99.90;;;;;;2160445;66;20897;-75
2022/01/13 00:10:35;;;;;;;61.63;22.42;;;5.90;99.90;;;;;;2165112;66;20249;-75
2022/01/13 00:13:23;;;;;;;54.70;21.73;;;5.90;99.90;;;;;;2158710;66;20498;-74
2022/01/13 00:22:01;;;;;;;65.25;23.52;;;5.80;99.90;;;;;;2174931;65;20325;-74
2022/01/13 00:24:46;;;;;;;56.03;22.92;;;5.80;99.90;;;;;;2181491;65;20168;-75
2022/01/13 00:27:29;;;;;;;55.25;21.63;;;5.80;99.90;;;;;;2171195;65;20168;-74
2022/01/13 00:30:16;;;;;;;63.75;20.10;;;5.80;99.90;;;;;;2168993;65;20201;-75
2022/01/13 00:33:01;;;;;;;64.85;20.80;;;5.70;99.90;;;;;;2165593;65;20248;-74
2022/01/13 00:35:46;;;;;;;60.78;21.35;;;5.70;99.90;;;;;;2164315;65;20221;-74
2022/01/13 00:38:31;;;;;;;59.55;22.13;;;5.70;99.90;;;;;;2182118;65;20183;-74
2022/01/13 00:41:12;;;;;;;51.33;20.38;;;5.60;99.90;;;;;;2193667;65;20319;-75
2022/01/13 00:44:19;;;;;;;50.25;20.95;;;5.60;99.90;;;;;;2174463;65;20719;-73
2022/01/13 00:47:01;;;;;;;52.03;19.35;;;5.60;99.90;;;;;;2157612;66;20357;-74
2022/01/13 00:49:45;;;;;;;73.75;23.45;;;5.60;99.90;;;;;;2155413;66;20190;-74
2022/01/13 00:52:29;;;;;;;59.97;23.70;;;5.60;99.90;;;;;;2150190;66;20289;-75
2022/01/13 00:55:17;;;;;;;64.75;23.42;;;5.50;99.90;;;;;;2154312;66;20257;-74
2022/01/13 00:57:59;;;;;;;59.15;20.80;;;5.50;99.90;;;;;;2147409;66;20687;-75
2022/01/13 01:00:41;;;;;;;55.92;21.42;;;5.50;99.90;;;;;;2140551;66;20694;-75
2022/01/13 01:03:25;;;;;;;54.30;20.08;;;5.50;99.90;;;;;;2141488;66;20419;-75
2022/01/13 01:06:09;;;;;;;56.78;21.73;;;5.50;99.90;;;;;;2131721;67;20857;-75
2022/01/13 01:08:52;;;;;;;58.17;21.60;;;5.50;99.90;;;;;;2135904;67;20258;-76
2022/01/13 01:11:37;;;;;;;77.78;24.02;;;5.50;99.90;;;;;;2140872;66;20687;-75
2022/01/13 01:14:19;;;;;;;63.08;22.20;;;5.40;99.90;;;;;;2156016;66;20429;-75
2022/01/13 01:17:01;;;;;;;55.97;23.45;;;5.50;99.90;;;;;;2162506;66;20312;-75
2022/01/13 01:19:48;;;;;;;57.78;21.52;;;5.40;99.90;;;;;;2153880;66;20735;-76
2022/01/13 01:22:40;;;;;;;57.40;21.48;;;5.40;99.90;;;;;;2152328;66;20203;-76
2022/01/13 01:28:16;;;;;;;50.13;20.50;;;5.30;99.90;;;;;;2161318;66;20704;-75
2022/01/13 01:30:58;;;;;;;53.83;22.70;;;5.30;99.90;;;;;;2149558;66;20241;-74
2022/01/13 01:33:46;;;;;;;51.55;23.20;;;5.30;99.90;;;;;;2153439;66;20833;-74
2022/01/13 01:36:28;;;;;;;55.20;23.25;;;5.30;99.90;;;;;;2147315;66;20253;-75
2022/01/13 01:39:12;;;;;;;70.18;25.58;;;5.30;99.90;;;;;;2162952;66;20308;-74
2022/01/13 01:41:56;;;;;;;52.95;21.73;;;5.30;99.90;;;;;;2167530;66;20379;-75
2022/01/13 01:44:43;;;;;;;61.22;24.55;;;5.30;99.90;;;;;;2168746;65;20176;-75
2022/01/13 01:47:31;;;;;;;48.90;20.33;;;5.30;99.90;;;;;;2163354;66;20202;-74
2022/01/13 01:50:18;;;;;;;58.65;26.10;;;5.30;99.90;;;;;;2159774;66;20182;-75
2022/01/13 01:53:00;;;;;;;62.05;25.50;;;5.40;99.90;;;;;;2152705;66;20256;-75
2022/01/13 01:55:42;;;;;;;73.13;26.10;;;5.40;99.90;;;;;;2145214;66;20760;-75
2022/01/13 01:58:28;;;;;;;65.55;26.33;;;5.50;99.90;;;;;;2132504;67;20266;-74
2022/01/13 02:01:09;;;;;;;61.00;24.40;;;5.40;99.90;;;;;;2133064;67;20361;-76
2022/01/13 02:03:51;;;;;;;75.65;26.33;;;5.50;99.90;;;;;;2141376;66;20246;-75
2022/01/13 02:06:35;;;;;;;71.75;24.48;;;5.50;99.90;;;;;;2140079;66;20213;-76
2022/01/13 02:09:21;;;;;;;72.00;24.65;;;5.40;99.90;;;;;;2144141;66;20181;-75
2022/01/13 02:12:08;;;;;;;58.70;25.02;;;5.40;99.90;;;;;;2139995;67;20234;-75
2022/01/13 02:15:05;;;;;;;60.40;23.80;;;5.40;99.90;;;;;;2150499;66;20295;-76
2022/01/13 02:18:01;;;;;;;63.38;24.63;;;5.40;99.90;;;;;;2139632;66;20198;-75
2022/01/13 02:20:47;;;;;;;48.70;22.63;;;5.40;99.90;;;;;;2146879;66;20324;-75
2022/01/13 02:23:37;;;;;;;57.22;22.85;;;5.40;99.90;;;;;;2133933;66;20226;-74
2022/01/13 02:26:22;;;;;;;52.72;22.75;;;5.40;99.90;;;;;;2141616;66;20404;-76
2022/01/13 02:29:07;;;;;;;;;;;5.40;99.90;;;;;;2147544;66;20174;-75
2022/01/13 02:31:50;;;;;;;54.00;22.23;;;5.50;99.90;;;;;;2144559;66;20696;-74
2022/01/13 02:34:32;;;;;;;57.05;23.10;;;5.40;99.90;;;;;;2147074;66;20342;-75
2022/01/13 02:37:15;;;;;;;54.95;23.48;;;5.70;99.90;;;;;;2151101;66;20237;-74
2022/01/13 02:39:59;;;;;;;53.78;22.98;;;5.40;99.90;;;;;;2146706;66;20330;-75
2022/01/13 02:42:42;;;;;;;62.75;25.48;;;5.40;99.90;;;;;;2156493;66;20216;-74
2022/01/13 02:45:32;;;;;;;52.63;22.63;;;5.40;99.90;;;;;;2146740;66;20315;-75
2022/01/13 02:51:12;;;;;;;51.38;22.77;;;5.50;99.90;;;;;;2160489;66;20178;-75
2022/01/13 02:53:56;;;;;;;51.22;21.80;;;5.50;99.90;;;;;;2146580;66;20276;-75
2022/01/13 02:56:42;;;;;;;46.80;20.17;;;5.50;99.90;;;;;;2157693;66;20352;-74
2022/01/13 02:59:25;;;;;;;55.40;22.30;;;5.50;99.90;;;;;;2153813;66;20854;-75
2022/01/13 03:02:09;;;;;;;;;;;5.60;99.90;;;;;;2150169;66;20253;-72
2022/01/13 03:04:55;;;;;;;49.67;21.00;;;5.60;99.90;;;;;;2175085;65;20231;-75
2022/01/13 03:07:53;;;;;;;53.83;21.85;;;5.60;99.90;;;;;;2161858;66;20202;-76
2022/01/13 03:10:46;;;;;;;47.50;21.20;;;5.60;99.90;;;;;;2163125;66;20329;-76
2022/01/13 03:13:56;;;;;;;52.60;21.13;;;5.70;99.90;;;;;;2155427;66;20237;-75
2022/01/13 03:16:42;;;;;;;52.58;19.98;;;5.70;99.90;;;;;;2148147;66;20588;-74
2022/01/13 03:19:24;;;;;;;49.75;20.23;;;5.70;99.90;;;;;;2155831;66;20299;-74
2022/01/13 03:22:27;;;;;;;54.60;20.98;;;5.70;99.90;;;;;;2159197;66;20288;-77
2022/01/13 03:25:53;;;;;;;47.50;19.63;;;5.70;99.90;;;;;;2138368;67;20238;-75
2022/01/13 03:29:20;;;;;;;57.15;22.33;;;5.70;99.90;;;;;;2108221;67;20729;-75
2022/01/13 03:32:04;;;;;;;60.13;23.13;;;5.70;99.90;;;;;;2097073;68;20320;-75
2022/01/13 03:34:47;;;;;;;59.13;22.33;;;5.70;99.90;;;;;;2096316;68;20208;-76
2022/01/13 03:37:31;;;;;;;59.85;22.42;;;5.70;99.90;;;;;;2090101;68;20552;-75
2022/01/13 03:40:13;;;;;;;55.03;22.98;;;5.60;99.90;;;;;;2083238;68;20682;-74
2022/01/13 03:42:57;;;;;;;62.00;25.45;;;5.60;99.90;;;;;;2077817;68;20323;-74
2022/01/13 03:45:42;;;;;;;55.28;22.77;;;5.60;99.90;;;;;;2070641;68;20774;-76
2022/01/13 03:48:25;;;;;;;60.53;22.88;;;5.60;99.90;;;;;;2081335;68;20196;-75
2022/01/13 03:51:09;;;;;;;59.20;24.02;;;5.50;99.90;;;;;;2083704;68;20738;-75
2022/01/13 03:54:27;;;;;;;58.08;22.45;;;5.50;99.90;;;;;;2082045;68;20682;-75
2022/01/13 03:57:36;;;;;;;57.50;20.83;;;5.50;99.90;;;;;;2086891;68;20171;-76
2022/01/13 04:01:04;;;;;;;61.75;22.85;;;5.50;99.90;;;;;;2100686;67;20241;-75
2022/01/13 04:03:45;;;;;;;60.80;22.85;;;5.50;99.90;;;;;;2113818;67;20181;-76
2022/01/13 04:06:42;;;;;;;59.17;22.65;;;5.50;99.90;;;;;;2138139;66;20391;-74
2022/01/13 04:09:39;;;;;;;57.63;22.88;;;5.40;99.90;;;;;;2133729;67;20245;-76
2022/01/13 04:12:26;;;;;;;64.35;23.48;;;5.40;99.90;;;;;;2112681;67;20284;-75
2022/01/13 04:15:19;;;;;;;63.40;23.40;;;5.40;99.90;;;;;;2108634;67;20203;-75
2022/01/13 04:18:01;;;;;;;70.38;26.40;;;5.40;99.90;;;;;;2116601;67;20725;-76
2022/01/13 04:20:44;;;;;;;74.63;25.25;;;5.40;99.90;;;;;;2119642;67;20270;-75
2022/01/13 04:23:30;;;;;;;70.75;24.40;;;5.40;99.90;;;;;;2105141;67;20253;-76
2022/01/13 04:26:19;;;;;;;67.13;24.85;;;5.40;99.90;;;;;;2119441;67;20405;-75
2022/01/13 04:31:53;;;;;;;70.50;23.75;;;5.30;99.90;;;;;;2134780;67;20225;-74
2022/01/13 04:34:36;;;;;;;88.07;29.92;;;5.30;99.90;;;;;;2140213;66;20238;-75
2022/01/13 04:37:20;;;;;;;;;;;5.30;99.90;;;;;;2132297;66;20361;-75
2022/01/13 04:40:03;;;;;;;74.38;27.45;;;5.30;99.90;;;;;;2126252;67;20129;-75
2022/01/13 04:42:53;;;;;;;91.65;30.38;;;5.30;99.90;;;;;;2135756;66;21151;-76
2022/01/13 04:45:39;;;;;;;74.68;23.33;;;5.20;99.90;;;;;;2150216;66;20242;-76
2022/01/13 04:48:25;;;;;;;72.68;25.50;;;5.40;99.90;;;;;;2149520;66;20212;-75
2022/01/13 04:51:09;;;;;;;83.65;27.20;;;5.40;99.90;;;;;;2145082;66;20200;-75
2022/01/13 04:53:51;;;;;;;70.80;25.38;;;5.60;99.90;;;;;;2147265;66;20261;-75
2022/01/13 04:57:06;;;;;;;91.10;28.00;;;5.40;99.90;;;;;;2153677;66;20289;-74
2022/01/13 04:59:46;;;;;;;62.40;24.17;;;5.40;99.90;;;;;;2155320;66;20318;-75
2022/01/13 05:02:30;;;;;;;75.60;26.92;;;5.40;99.90;;;;;;2150328;66;20360;-74
2022/01/13 05:05:14;;;;;;;90.22;27.65;;;5.50;99.90;;;;;;2135281;67;20255;-75
2022/01/13 05:07:57;;;;;;;95.15;27.45;;;5.50;99.90;;;;;;2149321;66;20278;-75
2022/01/13 05:10:41;;;;;;;87.78;27.77;;;5.40;99.90;;;;;;2138124;67;20416;-74
2022/01/13 05:13:23;;;;;;;81.10;27.13;;;5.40;99.90;;;;;;2144290;66;20447;-74
2022/01/13 05:16:09;;;;;;;74.45;27.77;;;5.50;99.90;;;;;;2153924;66;20233;-75
2022/01/13 05:24:40;;;;;;;83.22;28.38;;;5.40;99.90;;;;;;2142347;66;20229;-75
2022/01/13 05:27:24;;;;;;;113.13;30.40;;;5.40;99.90;;;;;;2161541;66;20413;-76
2022/01/13 05:30:09;;;;;;;106.95;30.92;;;5.40;99.90;;;;;;2146076;66;20177;-75
2022/01/13 05:32:51;;;;;;;106.25;28.00;;;5.40;99.90;;;;;;2152123;66;20758;-74
2022/01/13 05:35:34;;;;;;;85.43;26.17;;;6.30;99.90;;;;;;2134655;67;20256;-75
2022/01/13 05:38:18;;;;;;;120.38;33.63;;;5.30;99.90;;;;;;2124495;67;20181;-75
2022/01/13 05:41:04;;;;;;;110.88;31.75;;;5.30;99.90;;;;;;2126476;67;20260;-75
2022/01/13 05:43:48;;;;;;;;;;;5.70;99.90;;;;;;2131267;67;20383;-75
2022/01/13 05:46:30;;;;;;;115.70;32.53;;;5.30;99.90;;;;;;2130945;67;20167;-75
2022/01/13 05:49:12;;;;;;;117.97;33.08;;;5.30;99.90;;;;;;2133760;66;20158;-75
2022/01/13 05:51:54;;;;;;;94.63;28.55;;;5.40;99.90;;;;;;2133890;67;20362;-74
2022/01/13 05:54:40;;;;;;;120.97;34.60;;;5.40;99.90;;;;;;2143729;66;20182;-75
2022/01/13 05:57:25;;;;;;;103.75;31.42;;;5.60;99.90;;;;;;2146584;66;20352;-74
2022/01/13 06:00:09;;;;;;;134.02;35.42;;;5.40;99.90;;;;;;2154158;66;20227;-74
2022/01/13 06:02:53;;;;;;;125.43;38.10;;;5.40;99.90;;;;;;2157888;65;20714;-75
2022/01/13 06:05:37;;;;;;;132.70;35.78;;;5.50;99.90;;;;;;2172216;65;20689;-75
2022/01/13 06:08:20;;;;;;;121.70;36.45;;;5.50;99.90;;;;;;2176280;65;20320;-74
2022/01/13 06:11:05;;;;;;;105.82;31.17;;;5.50;99.90;;;;;;2147272;66;20230;-73
2022/01/13 06:13:47;;;;;;;126.55;37.25;;;5.50;99.90;;;;;;2161914;66;20329;-74
2022/01/13 06:16:30;;;;;;;100.53;31.38;;;5.50;99.90;;;;;;2147798;66;20794;-75
2022/01/13 06:19:15;;;;;;;112.93;36.33;;;5.60;99.90;;;;;;2134890;67;20168;-75
2022/01/13 06:21:57;;;;;;;119.00;40.03;;;5.60;99.90;;;;;;2157918;66;20363;-74
2022/01/13 06:24:38;;;;;;;122.60;39.05;;;5.70;99.90;;;;;;2169315;66;20414;-76
2022/01/13 06:27:22;;;;;;;106.22;34.00;;;5.60;99.90;;;;;;2170944;65;20434;-75
2022/01/13 06:30:08;;;;;;;117.60;36.47;;;5.70;99.90;;;;;;2168966;66;20367;-74
2022/01/13 06:32:51;;;;;;;100.03;32.97;;;5.70;99.90;;;;;;2167582;66;20424;-75
2022/01/13 06:35:33;;;;;;;89.15;32.97;;;5.80;99.90;;;;;;2168827;66;20657;-74
2022/01/13 06:38:15;;;;;;;98.80;32.55;;;5.80;99.90;;;;;;2170601;65;20364;-74
2022/01/13 06:40:56;;;;;;;114.53;34.63;;;5.80;99.90;;;;;;2169882;66;20672;-75
2022/01/13 06:43:38;;;;;;;97.13;33.55;;;5.90;99.90;;;;;;2174313;65;20739;-75
2022/01/13 06:46:23;;;;;;;99.53;34.55;;;5.90;99.90;;;;;;2184586;65;20678;-74
2022/01/13 06:49:05;;;;;;;86.47;30.35;;;5.90;99.90;;;;;;2158283;66;20201;-74
2022/01/13 06:51:50;;;;;;;106.75;35.25;;;5.90;99.90;;;;;;2154325;66;20242;-73
2022/01/13 06:54:35;;;;;;;101.55;34.95;;;5.90;99.90;;;;;;2153442;65;20240;-73
2022/01/13 06:57:17;;;;;;;108.22;36.85;;;6.00;99.90;;;;;;2159106;66;20877;-74
2022/01/13 07:00:00;;;;;;;98.85;36.00;;;6.10;99.90;;;;;;2138494;66;20203;-75
2022/01/13 07:02:46;;;;;;;93.00;34.30;;;6.00;99.90;;;;;;2151865;66;20209;-75
2022/01/13 07:05:34;;;;;;;98.18;31.25;;;6.00;99.90;;;;;;2154401;66;20178;-75
2022/01/13 07:08:16;;;;;;;96.75;34.17;;;6.00;99.90;;;;;;2163019;66;20310;-74
2022/01/13 07:11:03;;;;;;;106.33;35.50;;;6.00;99.90;;;;;;2154352;66;20892;-74
2022/01/13 07:13:45;;;;;;;98.50;35.85;;;6.10;99.90;;;;;;2154014;66;20301;-74
2022/01/13 07:16:27;;;;;;;105.13;35.38;;;6.10;99.90;;;;;;2160825;66;20161;-74
2022/01/13 07:19:10;;;;;;;109.25;37.00;;;6.10;99.90;;;;;;2149876;66;20193;-75
2022/01/13 07:21:52;;;;;;;107.68;37.55;;;6.10;99.90;;;;;;2165044;65;20324;-76
2022/01/13 07:24:55;;;;;;;90.20;32.03;;;6.10;99.90;;;;;;2168738;65;20208;-75
2022/01/13 07:27:52;;;;;;;95.15;35.88;;;6.10;99.90;;;;;;2153922;66;20228;-75
2022/01/13 07:30:36;;;;;;;87.68;34.00;;;6.10;99.90;;;;;;2146727;66;20419;-74
2022/01/13 07:33:18;;;;;;;107.57;36.80;;;6.20;99.90;;;;;;2162581;66;20188;-74
2022/01/13 07:36:08;;;;;;;102.63;37.65;;;6.20;99.90;;;;;;2157909;66;20354;-81
2022/01/13 07:38:52;;;;;;;97.63;34.78;;;6.20;99.90;;;;;;2147749;66;20300;-80
2022/01/13 07:41:36;;;;;;;94.10;32.90;;;6.20;99.90;;;;;;2163950;65;20228;-77
2022/01/13 07:44:20;;;;;;;87.72;31.60;;;6.20;99.90;;;;;;2168081;65;20184;-77
2022/01/13 07:47:04;;;;;;;;;;;6.20;99.90;;;;;;2167434;65;20413;-80
2022/01/13 07:49:48;;;;;;;93.72;33.20;;;6.20;99.90;;;;;;2165503;65;20277;-75
2022/01/13 07:52:32;;;;;;;104.30;35.65;;;6.20;99.90;;;;;;2172419;65;20216;-78
2022/01/13 07:55:14;;;;;;;86.95;31.88;;;6.30;99.90;;;;;;2159463;66;20347;-79
2022/01/13 07:57:56;;;;;;;83.43;30.02;;;6.30;99.90;;;;;;2160758;66;20263;-78
2022/01/13 08:00:38;;;;;;;89.72;32.00;;;6.40;99.90;;;;;;2153734;66;20473;-73
2022/01/13 08:03:20;;;;;;;92.90;28.45;;;6.20;99.90;;;;;;2155466;66;20279;-75
2022/01/13 08:06:05;;;;;;;82.70;32.97;;;6.30;99.90;;;;;;2145837;66;20267;-71
2022/01/13 08:08:48;;;;;;;86.78;32.42;;;6.20;99.90;;;;;;2158417;66;20206;-75
2022/01/13 08:11:38;;;;;;;90.25;32.95;;;6.30;99.90;;;;;;2159922;66;20210;-75
2022/01/13 08:14:24;;;;;;;82.03;31.42;;;6.30;99.90;;;;;;2165763;66;20260;-77
2022/01/13 08:19:45;;;;;;;75.03;29.67;;;6.30;99.90;;;;;;2160196;66;20172;-79
2022/01/13 08:20:13;;;;;;;77.72;28.92;;;6.30;99.90;;;;;;2152745;66;20199;-78
2022/01/13 08:22:55;;;;;;;74.05;29.52;;;6.30;99.90;;;;;;2144830;66;20846;-78
2022/01/13 08:25:41;;;;;;;84.28;32.60;;;6.30;99.90;;;;;;2141585;66;20315;-76
2022/01/13 08:28:28;;;;;;;76.00;30.85;;;6.40;99.90;;;;;;2138960;66;20308;-75
2022/01/13 08:31:09;;;;;;;80.88;29.38;;;7.00;99.90;;;;;;2127923;67;20340;-75
2022/01/13 08:33:52;;;;;;;79.68;30.75;;;6.40;99.90;;;;;;2153917;66;20200;-76
2022/01/13 08:36:38;;;;;;;87.00;31.17;;;6.40;99.90;;;;;;2148107;66;20182;-75
2022/01/13 08:39:19;;;;;;;76.03;28.92;;;6.40;99.90;;;;;;2141361;66;20183;-78
2022/01/13 08:42:01;;;;;;;81.97;29.50;;;6.30;99.90;;;;;;2144248;66;20171;-76
2022/01/13 08:44:45;;;;;;;70.25;28.33;;;6.30;99.90;;;;;;2132922;67;20262;-77
2022/01/13 08:47:31;;;;;;;71.80;28.42;;;6.40;99.90;;;;;;2145891;66;20288;-78
2022/01/13 08:50:16;;;;;;;85.47;29.10;;;6.30;99.90;;;;;;2140437;66;20175;-77
2022/01/13 08:52:59;;;;;;;72.72;31.42;;;6.30;99.90;;;;;;2145628;66;20202;-79
2022/01/13 08:55:44;;;;;;;81.47;30.00;;;6.30;99.90;;;;;;2145167;66;20162;-78
2022/01/13 08:58:26;;;;;;;75.15;30.35;;;6.50;99.90;;;;;;2146184;66;20221;-78
2022/01/13 09:01:11;;;;;;;71.78;29.45;;;6.30;99.90;;;;;;2154677;66;20343;-76
2022/01/13 09:03:53;;;;;;;71.55;29.02;;;6.30;99.90;;;;;;2154635;66;20362;-77
2022/01/13 09:06:38;;;;;;;72.70;29.17;;;6.30;99.90;;;;;;2147087;66;20210;-78
2022/01/13 09:09:20;;;;;;;74.85;29.77;;;6.30;99.90;;;;;;2153130;66;20393;-78
2022/01/13 09:12:03;;;;;;;75.15;30.38;;;6.60;99.90;;;;;;2161711;66;20304;-77
2022/01/13 09:14:45;;;;;;;82.50;29.75;;;6.40;99.90;;;;;;2161954;66;20206;-78
2022/01/13 09:17:27;;;;;;;83.80;32.78;;;6.40;99.90;;;;;;2169144;65;20298;-79
2022/01/13 09:20:13;;;;;;;82.22;32.90;;;6.40;99.90;;;;;;2162079;66;20692;-76
2022/01/13 09:22:57;;;;;;;72.40;30.15;;;6.40;99.90;;;;;;2151395;66;20846;-78
2022/01/13 09:25:39;;;;;;;71.90;31.73;;;6.40;99.90;;;;;;2155053;66;20185;-78
2022/01/13 09:28:21;;;;;;;75.95;29.50;;;6.40;99.90;;;;;;2154663;66;20207;-79
2022/01/13 09:31:04;;;;;;;70.10;28.55;;;6.30;99.90;;;;;;2145588;66;20195;-78
2022/01/13 09:33:47;;;;;;;76.68;29.73;;;6.40;99.90;;;;;;2129722;67;20187;-80
2022/01/13 09:36:32;;;;;;;73.70;29.17;;;6.40;99.90;;;;;;2145908;66;20174;-83
2022/01/13 09:39:14;;;;;;;61.50;28.27;;;6.40;99.90;;;;;;2139897;66;20178;-82
2022/01/13 09:41:58;;;;;;;68.53;29.10;;;6.40;99.90;;;;;;2147165;66;20309;-81
2022/01/13 09:44:43;;;;;;;57.08;26.90;;;6.50;99.90;;;;;;2154846;66;20269;-79
2022/01/13 09:47:26;;;;;;;64.07;26.88;;;6.40;99.90;;;;;;2169659;65;20176;-79
2022/01/13 09:50:10;;;;;;;58.65;27.92;;;6.40;99.90;;;;;;2161646;66;20337;-79
2022/01/13 09:52:53;;;;;;;65.03;26.98;;;6.60;99.90;;;;;;2164034;65;20187;-80
2022/01/13 09:55:34;;;;;;;59.53;25.05;;;6.50;99.90;;;;;;2185067;65;20355;-80
2022/01/13 09:58:16;;;;;;;63.50;29.05;;;6.50;99.90;;;;;;2185518;65;20348;-79
2022/01/13 10:01:06;;;;;;;58.80;27.90;;;6.50;99.90;;;;;;2180634;65;20237;-80
2022/01/13 10:03:50;;;;;;;52.90;24.63;;;6.50;99.90;;;;;;2174288;65;20253;-81
2022/01/13 10:06:42;;;;;;;61.58;24.98;;;6.60;99.90;;;;;;2147520;66;20174;-77
2022/01/13 10:09:24;;;;;;;49.90;23.20;;;6.60;99.90;;;;;;2146393;66;20835;-80
2022/01/13 10:12:09;;;;;;;53.10;24.05;;;6.60;99.90;;;;;;2145670;66;20266;-82
2022/01/13 10:17:48;;;;;;;51.00;22.67;;;6.60;99.90;;;;;;2157990;66;20338;-81
2022/01/13 10:20:33;;;;;;;57.13;24.63;;;6.80;99.90;;;;;;2161306;66;20203;-76
2022/01/13 10:23:15;;;;;;;54.78;25.23;;;6.60;99.90;;;;;;2169998;65;20567;-75
2022/01/13 10:26:08;;;;;;;58.65;26.33;;;6.80;99.90;;;;;;2157515;66;20198;-77
2022/01/13 10:28:54;;;;;;;52.63;24.25;;;6.70;99.90;;;;;;2145043;66;20784;-77
2022/01/13 10:31:43;;;;;;;53.38;24.83;;;6.80;99.90;;;;;;2156063;66;20200;-78
2022/01/13 10:34:29;;;;;;;61.42;25.77;;;6.80;99.90;;;;;;2159958;65;20266;-78
2022/01/13 10:37:19;;;;;;;57.83;26.30;;;6.80;99.90;;;;;;2157775;66;20632;-76
2022/01/13 10:40:10;;;;;;;55.78;25.45;;;6.80;99.90;;;;;;2147411;66;20839;-78
2022/01/13 10:46:10;;;;;;;57.10;26.20;;;6.80;99.90;;;;;;2143534;66;20575;-79
2022/01/13 10:49:11;;;;;;;52.78;26.45;;;6.80;99.90;;;;;;2147698;66;20174;-79
2022/01/13 10:51:53;;;;;;;57.88;25.70;;;6.80;99.90;;;;;;2131540;67;20279;-79
2022/01/13 10:54:35;;;;;;;49.03;25.45;;;7.10;99.90;;;;;;2107889;67;20273;-79
2022/01/13 10:57:27;;;;;;;53.10;25.40;;;6.80;99.90;;;;;;2105244;67;20825;-75
2022/01/13 11:00:28;;;;;;;45.88;25.70;;;6.80;99.90;;;;;;2100826;67;20256;-76
2022/01/13 11:03:34;;;;;;;55.15;26.83;;;6.80;99.90;;;;;;2099019;68;20401;-78
2022/01/13 11:06:29;;;;;;;52.42;24.50;;;7.10;99.90;;;;;;2106002;67;20346;-78
2022/01/13 11:09:16;;;;;;;51.45;26.08;;;6.80;99.90;;;;;;2101783;67;20634;-78
2022/01/13 11:11:59;;;;;;;55.10;24.90;;;6.90;99.90;;;;;;2109964;67;20691;-76
2022/01/13 11:14:43;;;;;;;46.63;21.80;;;7.00;99.90;;;;;;2130959;67;20194;-76
2022/01/13 11:17:21;;;;;;;52.83;24.98;;;6.90;99.90;;;;;;2134091;66;20264;-75
2022/01/13 11:20:03;;;;;;;54.95;24.98;;;6.90;99.90;;;;;;2136105;67;20623;-77
2022/01/13 11:22:41;;;;;;;60.70;25.48;;;7.00;99.90;;;;;;2139896;66;20475;-76
2022/01/13 11:25:23;;;;;;;56.78;25.70;;;7.60;99.90;;;;;;2173392;64;20225;-76
2022/01/13 11:28:03;;;;;;;40.65;22.80;;;7.00;99.90;;;;;;2221743;64;20751;-81
2022/01/13 11:30:54;;;;;;;51.75;25.77;;;7.10;99.90;;;;;;2213625;64;20792;-76
2022/01/13 11:33:45;;;;;;;49.00;24.35;;;7.10;99.90;;;;;;2221501;64;20227;-76
2022/01/13 11:36:37;;;;;;;43.58;21.75;;;7.10;99.90;;;;;;2219040;64;20163;-74
2022/01/13 11:39:17;;;;;;;49.65;24.60;;;7.20;99.90;;;;;;2217643;64;20188;-76
2022/01/13 11:42:02;;;;;;;50.38;25.77;;;7.20;99.90;;;;;;2221572;64;20222;-78
2022/01/13 11:44:42;;;;;;;45.92;24.52;;;7.20;99.90;;;;;;2221391;64;20193;-78
2022/01/13 11:47:25;;;;;;;45.97;24.75;;;7.10;99.90;;;;;;2221581;64;20193;-79
2022/01/13 11:50:22;;;;;;;38.33;21.35;;;7.20;99.90;;;;;;2225936;64;20394;-78
2022/01/13 11:53:30;;;;;;;47.35;22.65;;;7.20;99.90;;;;;;2238089;63;20260;-78
2022/01/13 11:56:09;;;;;;;;;;;7.10;99.90;;;;;;2237105;63;20234;-77
2022/01/13 11:58:55;;;;;;;50.58;23.70;;;6.90;99.90;;;;;;2228980;64;20055;-77
2022/01/13 12:01:40;;;;;;;46.10;24.50;;;7.10;99.90;;;;;;2219342;64;20431;-76
2022/01/13 12:04:25;;;;;;;45.27;21.17;;;7.10;99.90;;;;;;2217043;64;20599;-80
2022/01/13 12:07:47;;;;;;;39.92;21.50;;;7.10;99.90;;;;;;2211348;64;20922;-77
2022/01/13 12:10:38;;;;;;;45.33;22.58;;;7.10;99.90;;;;;;2198169;64;20176;-77
2022/01/13 12:13:28;;;;;;;43.30;23.33;;;7.20;99.90;;;;;;2196978;65;20193;-78
2022/01/13 12:16:13;;;;;;;52.90;26.42;;;7.20;99.90;;;;;;2190274;65;20762;-80
2022/01/13 12:19:12;;;;;;;39.53;22.55;;;7.20;99.90;;;;;;2176359;65;20270;-78
2022/01/13 12:22:39;;;;;;;39.90;18.92;;;7.70;99.90;;;;;;2169671;65;20199;-79
2022/01/13 12:25:31;;;;;;;51.33;22.52;;;7.30;99.90;;;;;;2167882;65;21186;-78
2022/01/13 12:28:18;;;;;;;36.90;22.92;;;7.30;99.90;;;;;;2155260;66;20253;-81
2022/01/13 12:31:28;;;;;;;37.58;20.42;;;7.30;99.90;;;;;;2152231;66;20332;-77
2022/01/13 12:34:29;;;;;;;32.95;19.05;;;7.30;99.90;;;;;;2139105;66;20282;-77
2022/01/13 12:37:12;;;;;;;35.22;20.65;;;7.30;99.90;;;;;;2133107;66;20761;-78
2022/01/13 12:40:01;;;;;;;33.17;18.45;;;7.40;99.90;;;;;;2161706;66;20278;-76
2022/01/13 12:42:50;;;;;;;34.33;20.05;;;7.40;99.90;;;;;;2153361;66;20315;-78
2022/01/13 12:45:34;;;;;;;38.97;21.58;;;7.50;99.90;;;;;;2151307;66;20223;-77
2022/01/13 12:48:19;;;;;;;38.55;20.48;;;7.50;99.90;;;;;;2143111;66;20199;-78
2022/01/13 12:51:02;;;;;;;39.05;20.33;;;7.50;99.90;;;;;;2139663;66;20313;-75
2022/01/13 12:53:46;;;;;;;39.65;19.88;;;7.60;99.90;;;;;;2150254;66;20240;-75
2022/01/13 12:56:30;;;;;;;41.95;20.60;;;7.70;99.90;;;;;;2164643;66;20172;-76
2022/01/13 12:59:15;;;;;;;34.10;19.60;;;7.70;99.90;;;;;;2175293;65;20191;-76
2022/01/13 13:02:01;;;;;;;32.17;18.70;;;7.70;99.90;;;;;;2173221;65;20788;-77
2022/01/13 13:04:43;;;;;;;35.65;19.50;;;7.70;99.90;;;;;;2172356;65;20703;-80
2022/01/13 13:07:25;;;;;;;30.67;19.58;;;7.90;99.90;;;;;;2183668;65;20579;-80
2022/01/13 13:10:08;;;;;;;31.50;18.13;;;8.00;99.90;;;;;;2182698;65;20721;-80
2022/01/13 13:12:53;;;;;;;29.02;17.40;;;8.00;99.90;;;;;;2183498;65;20317;-78
2022/01/13 13:18:22;;;;;;;31.08;17.23;;;8.10;99.90;;;;;;2179128;65;20572;-81
2022/01/13 13:21:06;;;;;;;25.27;17.10;;;8.10;99.90;;;;;;2182671;65;20547;-76
2022/01/13 13:23:48;;;;;;;37.40;17.27;;;8.10;99.90;;;;;;2183416;65;20171;-76
2022/01/13 13:26:30;;;;;;;25.65;16.15;;;8.10;99.90;;;;;;2176989;65;20315;-82
2022/01/13 13:29:13;;;;;;;30.95;16.83;;;8.10;99.90;;;;;;2175311;65;20777;-77
2022/01/13 13:31:58;;;;;;;28.17;14.20;;;8.10;99.90;;;;;;2185991;65;20352;-79
2022/01/13 13:34:41;;;;;;;28.23;16.23;;;8.10;99.90;;;;;;2171614;65;20640;-80
2022/01/13 13:37:25;;;;;;;;;;;8.10;99.90;;;;;;2172193;65;20364;-77
2022/01/13 13:40:10;;;;;;;30.08;16.92;;;8.10;99.90;;;;;;2167768;65;20615;-79
2022/01/13 13:43:03;;;;;;;30.27;16.13;;;8.20;99.90;;;;;;2169257;65;20711;-80
2022/01/13 13:45:45;;;;;;;21.23;14.48;;;8.20;99.90;;;;;;2167928;65;20172;-78
2022/01/13 13:48:27;;;;;;;24.77;14.82;;;8.20;99.90;;;;;;2177388;65;20203;-77
2022/01/13 13:51:11;;;;;;;24.38;14.85;;;8.30;99.90;;;;;;2162022;66;20640;-79
2022/01/13 13:54:27;;;;;;;25.77;15.52;;;8.30;99.90;;;;;;2164174;66;20168;-82
2022/01/13 13:57:12;;;;;;;21.02;14.02;;;8.30;99.90;;;;;;2167902;66;24421;-81
2022/01/13 13:59:56;;;;;;;22.98;15.15;;;8.30;99.90;;;;;;2175077;65;20352;-80
2022/01/13 14:02:49;;;;;;;22.92;13.80;;;8.30;99.90;;;;;;2170755;65;20344;-77
2022/01/13 14:05:43;;;;;;;18.92;11.82;;;8.30;99.90;;;;;;2175367;65;20369;-81
2022/01/13 14:08:27;;;;;;;29.23;13.80;;;8.40;99.90;;;;;;2170302;65;20301;-80
2022/01/13 14:11:09;;;;;;;23.27;13.30;;;8.30;99.90;;;;;;2160740;66;20181;-80
2022/01/13 14:14:12;;;;;;;23.60;13.15;;;8.40;99.90;;;;;;2161227;66;20443;-81
2022/01/13 14:16:59;;;;;;;20.42;11.27;;;8.30;99.90;;;;;;2163339;66;20192;-78
2022/01/13 14:20:04;;;;;;;20.95;12.82;;;8.30;99.90;;;;;;2155899;66;20177;-81
2022/01/13 14:23:03;;;;;;;22.45;13.40;;;8.30;99.90;;;;;;2160960;66;20235;-78
2022/01/13 14:25:47;;;;;;;23.77;13.20;;;8.40;99.90;;;;;;2165819;65;20840;-77
2022/01/13 14:28:30;;;;;;;20.13;12.95;;;8.30;99.90;;;;;;2187982;65;20225;-80
2022/01/13 14:31:12;;;;;;;23.95;13.85;;;8.30;99.90;;;;;;2176592;65;20263;-78
2022/01/13 14:33:59;;;;;;;23.83;12.55;;;8.30;99.90;;;;;;2165632;65;20774;-78
2022/01/13 14:36:41;;;;;;;24.60;13.95;;;8.30;99.90;;;;;;2152332;66;20345;-82
2022/01/13 14:39:30;;;;;;;24.63;12.68;;;7.80;99.90;;;;;;2158994;66;20495;-78
2022/01/13 14:42:27;;;;;;;19.17;12.52;;;8.20;99.90;;;;;;2156393;66;20165;-78
2022/01/13 14:45:19;;;;;;;22.35;12.95;;;8.30;99.90;;;;;;2156911;66;20161;-76
2022/01/13 14:48:01;;;;;;;29.52;13.85;;;8.20;99.90;;;;;;2164467;66;20273;-79